createdAt,value
2019-03-12T00:00:34.511Z,100253.33
2019-03-12T00:03:05.797Z,100264.77
2019-03-12T00:05:36.811Z,100277.98
2019-03-12T00:08:08.853Z,100281.42
2019-03-12T00:10:40.021Z,100277.71
2019-03-12T00:13:10.907Z,100273.31
2019-03-12T00:15:41.963Z,100275.11
2019-03-12T00:18:12.926Z,100282.10
2019-03-12T00:20:44.083Z,100287.12
2019-03-12T00:23:15.142Z,100287.48
2019-03-12T00:25:46.117Z,100295.48
2019-03-12T00:28:17.096Z,100298.72
2019-03-12T00:30:48.131Z,100310.09
2019-03-12T00:33:19.307Z,100316.75
2019-03-12T00:35:52.805Z,100332.63
2019-03-12T00:38:23.786Z,100332.67
2019-03-12T00:40:54.984Z,100340.44
2019-03-12T00:43:27.512Z,100342.48
2019-03-12T00:45:58.799Z,100340.50
2019-03-12T00:48:31.504Z,100338.95
2019-03-12T00:51:02.676Z,100334.67
2019-03-12T00:53:34.788Z,100330.75
2019-03-12T00:56:06.007Z,100339.28
2019-03-12T00:58:36.969Z,100340.16
2019-03-12T01:01:08.164Z,100345.61
2019-03-12T01:03:39.176Z,100339.73
2019-03-12T01:06:10.201Z,100344.50
2019-03-12T01:08:41.104Z,100350.95
2019-03-12T01:11:13.812Z,100349.75
2019-03-12T01:13:45.671Z,100342.00
2019-03-12T01:16:16.738Z,100348.46
2019-03-12T01:18:47.603Z,100354.09
2019-03-12T01:21:18.630Z,100355.59
2019-03-12T01:23:49.771Z,100365.44
2019-03-12T01:26:22.766Z,100362.96
2019-03-12T01:28:53.820Z,100365.71
2019-03-12T01:31:25.047Z,100369.18
2019-03-12T01:33:56.207Z,100377.08
2019-03-12T01:36:27.199Z,100374.19
2019-03-12T01:38:58.184Z,100388.74
2019-03-12T01:41:29.115Z,100402.08
2019-03-12T01:44:00.169Z,100414.92
2019-03-12T01:46:32.313Z,100417.59
2019-03-12T01:49:03.335Z,100405.47
2019-03-12T01:51:34.401Z,100409.75
2019-03-12T01:54:05.353Z,100401.84
2019-03-12T01:56:36.450Z,100386.30
2019-03-12T01:59:07.338Z,100410.32
2019-03-12T02:01:38.399Z,100415.72
2019-03-12T02:04:09.440Z,100428.47
2019-03-12T02:06:41.439Z,100416.97
2019-03-12T02:09:12.411Z,100417.06
2019-03-12T02:11:43.509Z,100422.61
2019-03-12T02:14:26.483Z,100416.16
2019-03-12T02:16:57.440Z,100413.16
2019-03-12T02:19:28.377Z,100411.41
2019-03-12T02:21:59.557Z,100413.64
2019-03-12T02:24:30.442Z,100422.48
2019-03-12T02:27:01.470Z,100426.25
2019-03-12T02:29:32.407Z,100432.44
2019-03-12T02:32:04.572Z,100432.76
2019-03-12T02:34:35.562Z,100424.59
2019-03-12T02:37:08.079Z,100423.25
2019-03-12T02:39:39.059Z,100430.34
2019-03-12T02:42:12.669Z,100433.92
2019-03-12T02:44:42.629Z,100448.77
2019-03-12T02:47:13.603Z,100449.47
2019-03-12T02:49:44.505Z,100440.55
2019-03-12T02:52:15.409Z,100439.72
2019-03-12T02:54:46.381Z,100439.58
2019-03-12T02:57:17.611Z,100447.52
2019-03-12T02:59:48.636Z,100453.13
2019-03-12T03:02:19.566Z,100468.95
2019-03-12T03:04:54.064Z,100464.22
2019-03-12T03:07:24.886Z,100471.34
2019-03-12T03:09:55.760Z,100463.80
2019-03-12T03:12:26.780Z,100466.59
2019-03-12T03:14:59.299Z,100469.75
2019-03-12T03:17:30.404Z,100479.74
2019-03-12T03:20:01.394Z,100479.39
2019-03-12T03:22:33.521Z,100477.67
2019-03-12T03:25:06.204Z,100485.34
2019-03-12T03:27:37.243Z,100484.06
2019-03-12T03:30:11.531Z,100487.42
2019-03-12T03:32:43.609Z,100493.59
2019-03-12T03:35:14.893Z,100509.55
2019-03-12T03:37:45.981Z,100508.16
2019-03-12T03:40:24.555Z,100503.08
2019-03-12T03:42:55.714Z,100509.05
2019-03-12T03:45:28.808Z,100504.61
2019-03-12T03:48:00.011Z,100506.11
2019-03-12T03:50:31.035Z,100510.71
2019-03-12T03:53:03.661Z,100518.11
2019-03-12T03:55:34.835Z,100516.07
2019-03-12T03:58:07.111Z,100512.71
2019-03-12T04:00:38.013Z,100523.79
2019-03-12T04:03:11.108Z,100529.29
2019-03-12T04:05:42.370Z,100525.00
2019-03-12T04:08:13.660Z,100521.25
2019-03-12T04:10:44.599Z,100520.75
2019-03-12T04:13:15.555Z,100528.22
2019-03-12T04:15:46.577Z,100532.09
2019-03-12T04:18:17.616Z,100545.05
2019-03-12T04:20:48.600Z,100549.72
2019-03-12T04:23:19.774Z,100556.19
2019-03-12T04:25:52.349Z,100554.84
2019-03-12T04:28:23.398Z,100559.02
2019-03-12T04:30:54.519Z,100569.06
2019-03-12T04:33:54.707Z,100573.18
2019-03-12T04:36:25.786Z,100571.45
2019-03-12T04:38:56.839Z,100576.50
2019-03-12T04:41:27.853Z,100583.73
2019-03-12T04:43:58.869Z,100589.45
2019-03-12T04:46:29.787Z,100596.72
2019-03-12T04:49:01.795Z,100603.44
2019-03-12T04:51:33.048Z,100609.15
2019-03-12T04:54:03.973Z,100618.91
2019-03-12T04:56:34.922Z,100617.66
2019-03-12T04:59:05.926Z,100618.70
2019-03-12T05:01:36.887Z,100625.94
2019-03-12T05:04:07.903Z,100641.97
2019-03-12T05:06:41.980Z,100651.59
2019-03-12T05:09:12.961Z,100656.27
2019-03-12T05:11:43.995Z,100651.28
2019-03-12T05:14:24.410Z,100659.00
2019-03-12T05:16:58.355Z,100654.59
2019-03-12T05:19:32.907Z,100647.52
2019-03-12T05:22:04.002Z,100652.36
2019-03-12T05:24:35.053Z,100655.62
2019-03-12T05:27:06.138Z,100656.87
2019-03-12T05:29:37.338Z,100661.38
2019-03-12T05:32:08.321Z,100655.95
2019-03-12T05:34:39.340Z,100657.89
2019-03-12T05:37:11.400Z,100655.75
2019-03-12T05:39:42.324Z,100661.26
2019-03-12T05:42:14.918Z,100665.66
2019-03-12T05:44:45.969Z,100672.25
2019-03-12T05:47:16.885Z,100667.85
2019-03-12T05:49:47.869Z,100675.89
2019-03-12T05:52:18.873Z,100675.83
2019-03-12T05:54:50.295Z,100678.45
2019-03-12T05:57:24.050Z,100678.64
2019-03-12T05:59:55.140Z,100684.16
2019-03-12T06:02:26.180Z,100683.70
2019-03-12T06:04:57.372Z,100682.30
2019-03-12T06:07:28.444Z,100683.22
2019-03-12T06:09:59.645Z,100688.84
2019-03-12T06:12:30.779Z,100693.03
2019-03-12T06:15:01.906Z,100691.38
2019-03-12T06:17:33.509Z,100684.66
2019-03-12T06:20:07.650Z,100701.18
2019-03-12T06:22:38.632Z,100695.96
2019-03-12T06:25:09.626Z,100707.50
2019-03-12T06:27:40.820Z,100702.26
2019-03-12T06:30:16.593Z,100703.08
2019-03-12T06:32:49.338Z,100711.37
2019-03-12T06:35:26.352Z,100702.16
2019-03-12T06:37:59.102Z,100702.16
2019-03-12T06:40:47.010Z,100703.66
2019-03-12T06:43:19.705Z,100706.19
2019-03-12T06:45:52.434Z,100706.70
2019-03-12T06:48:28.690Z,100714.11
2019-03-12T06:51:04.226Z,100715.70
2019-03-12T06:53:38.156Z,100716.20
2019-03-12T06:56:12.978Z,100718.06
2019-03-12T06:58:48.521Z,100717.54
2019-03-12T07:01:21.445Z,100708.28
2019-03-12T07:03:54.317Z,100706.80
2019-03-12T07:06:29.596Z,100717.16
2019-03-12T07:09:11.208Z,100718.33
2019-03-12T07:11:59.256Z,100723.75
2019-03-12T07:14:49.125Z,100720.91
2019-03-12T07:17:27.707Z,100722.90
2019-03-12T07:20:16.993Z,100725.41
2019-03-12T07:23:07.786Z,100724.12
2019-03-12T07:25:40.479Z,100735.45
2019-03-12T07:28:29.831Z,100734.38
2019-03-12T07:31:05.371Z,100731.59
2019-03-12T07:33:40.677Z,100729.94
2019-03-12T07:36:13.487Z,100730.45
2019-03-12T07:39:02.699Z,100728.41
2019-03-12T07:41:45.873Z,100723.17
2019-03-12T07:44:18.592Z,100717.50
2019-03-12T07:46:51.256Z,100718.97
2019-03-12T07:49:32.740Z,100725.22
2019-03-12T07:52:08.769Z,100721.19
2019-03-12T07:54:50.262Z,100719.59
2019-03-12T07:57:26.632Z,100717.12
2019-03-12T08:00:15.720Z,100711.94
2019-03-12T08:02:54.414Z,100713.11
2019-03-12T08:05:33.276Z,100714.11
2019-03-12T08:08:08.669Z,100705.72
2019-03-12T08:10:47.674Z,100703.90
2019-03-12T08:13:20.315Z,100704.66
2019-03-12T08:15:52.928Z,100701.32
2019-03-12T08:18:25.628Z,100698.27
2019-03-12T08:20:58.359Z,100687.91
2019-03-12T08:23:38.487Z,100683.62
2019-03-12T08:26:17.081Z,100687.50
2019-03-12T08:28:52.728Z,100680.05
2019-03-12T08:31:41.970Z,100686.14
2019-03-12T08:34:14.773Z,100684.64
2019-03-12T08:37:03.853Z,100677.45
2019-03-12T08:39:42.361Z,100680.41
2019-03-12T08:42:17.824Z,100672.90
2019-03-12T08:45:02.207Z,100678.45
2019-03-12T08:47:53.281Z,100678.69
2019-03-12T08:50:40.827Z,100670.34
2019-03-12T08:53:17.046Z,100680.08
2019-03-12T08:55:49.750Z,100671.66
2019-03-12T08:58:22.761Z,100676.94
2019-03-12T09:00:56.666Z,100673.48
2019-03-12T09:03:45.427Z,100677.42
2019-03-12T09:06:18.179Z,100679.70
2019-03-12T09:09:00.170Z,100676.14
2019-03-12T09:11:33.133Z,100682.98
2019-03-12T09:14:21.767Z,100678.27
2019-03-12T09:17:00.482Z,100686.73
2019-03-12T09:19:49.238Z,100683.44
2019-03-12T09:22:40.032Z,100686.35
2019-03-12T09:25:21.456Z,100679.31
2019-03-12T09:27:56.029Z,100673.41
2019-03-12T09:30:34.407Z,100660.45
2019-03-12T09:33:07.280Z,100665.14
2019-03-12T09:35:45.396Z,100657.89
2019-03-12T09:38:18.005Z,100654.71
2019-03-12T09:40:53.258Z,100661.03
2019-03-12T09:43:26.008Z,100656.30
2019-03-12T09:46:01.324Z,100661.97
2019-03-12T09:48:33.989Z,100663.98
2019-03-12T09:51:12.798Z,100653.17
2019-03-12T09:53:45.449Z,100652.47
2019-03-12T09:56:36.833Z,100650.23
2019-03-12T09:59:18.289Z,100651.05
2019-03-12T10:02:00.152Z,100647.75
2019-03-12T10:04:38.505Z,100642.78
2019-03-12T10:07:19.980Z,100638.51
2019-03-12T10:09:52.539Z,100642.35
2019-03-12T10:12:25.231Z,100642.35
2019-03-12T10:15:09.732Z,100631.59
2019-03-12T10:17:58.699Z,100625.84
2019-03-12T10:20:34.024Z,100626.17
2019-03-12T10:23:15.747Z,100621.59
2019-03-12T10:25:48.313Z,100625.52
2019-03-12T10:28:23.632Z,100613.61
2019-03-12T10:30:59.403Z,100615.73
2019-03-12T10:33:34.595Z,100617.03
2019-03-12T10:36:06.738Z,100611.81
2019-03-12T10:39:31.845Z,100617.80
2019-03-12T10:42:07.174Z,100621.27
2019-03-12T10:44:51.943Z,100610.61
2019-03-12T10:47:41.651Z,100629.32
2019-03-12T10:50:18.115Z,100612.71
2019-03-12T10:52:49.275Z,100610.27
2019-03-12T10:55:20.243Z,100620.63
2019-03-12T10:57:51.121Z,100616.37
2019-03-12T11:00:22.498Z,100623.98
2019-03-12T11:02:53.514Z,100614.98
2019-03-12T11:05:24.508Z,100607.55
2019-03-12T11:07:55.775Z,100617.38
2019-03-12T11:10:26.895Z,100600.27
2019-03-12T11:12:57.853Z,100602.30
2019-03-12T11:15:30.010Z,100596.17
2019-03-12T11:18:01.341Z,100607.37
2019-03-12T11:20:32.361Z,100597.23
2019-03-12T11:23:03.447Z,100598.33
2019-03-12T11:25:34.971Z,100590.14
2019-03-12T11:28:06.089Z,100594.34
2019-03-12T11:30:37.176Z,100607.11
2019-03-12T11:33:08.318Z,100593.33
2019-03-12T11:35:39.844Z,100591.05
2019-03-12T11:38:11.280Z,100602.17
2019-03-12T11:40:42.474Z,100591.77
2019-03-12T11:43:13.530Z,100585.38
2019-03-12T11:45:44.795Z,100579.83
2019-03-12T11:48:16.013Z,100577.98
2019-03-12T11:50:47.084Z,100577.98
2019-03-12T11:53:18.122Z,100581.45
2019-03-12T11:55:49.141Z,100582.11
2019-03-12T11:58:20.221Z,100573.80
2019-03-12T12:00:52.806Z,100573.03
2019-03-12T12:03:23.971Z,100568.14
2019-03-12T12:05:56.026Z,100574.29
2019-03-12T12:08:27.258Z,100578.57
2019-03-12T12:11:09.044Z,100580.09
2019-03-12T12:13:40.063Z,100579.06
2019-03-12T12:16:11.010Z,100579.06
2019-03-12T12:18:42.108Z,100583.36
2019-03-12T12:21:13.155Z,100583.36
2019-03-12T12:23:44.145Z,100592.58
2019-03-12T12:26:15.156Z,100604.48
2019-03-12T12:28:46.121Z,100602.09
2019-03-12T12:31:17.355Z,100601.56
2019-03-12T12:33:48.162Z,100602.21
2019-03-12T12:36:19.139Z,100599.55
2019-03-12T12:38:50.062Z,100599.55
2019-03-12T12:41:21.170Z,100604.33
2019-03-12T12:43:52.324Z,100606.66
2019-03-12T12:46:23.348Z,100600.61
2019-03-12T12:48:54.549Z,100590.69
2019-03-12T12:51:25.647Z,100586.70
2019-03-12T12:53:57.821Z,100599.14
2019-03-12T12:56:28.844Z,100600.31
2019-03-12T12:58:59.834Z,100593.94
2019-03-12T13:01:30.795Z,100592.05
2019-03-12T13:04:01.963Z,100594.31
2019-03-12T13:06:34.201Z,100599.14
2019-03-12T13:09:06.272Z,100595.34
2019-03-12T13:11:38.878Z,100595.34
2019-03-12T13:14:09.989Z,100582.75
2019-03-12T13:16:40.934Z,100599.64
2019-03-12T13:19:11.883Z,100605.19
2019-03-12T13:21:43.064Z,100607.80
2019-03-12T13:24:14.112Z,100608.73
2019-03-12T13:26:46.103Z,100606.50
2019-03-12T13:29:17.117Z,100606.50
2019-03-12T13:31:49.357Z,100598.80
2019-03-12T13:34:20.295Z,100604.94
2019-03-12T13:36:56.118Z,100595.80
2019-03-12T13:39:27.585Z,100600.85
2019-03-12T13:41:58.792Z,100595.91
2019-03-12T13:44:29.974Z,100606.27
2019-03-12T13:47:00.986Z,100599.05
2019-03-12T13:49:32.086Z,100596.77
2019-03-12T13:52:03.280Z,100603.03
2019-03-12T13:54:34.394Z,100599.83
2019-03-12T13:57:05.546Z,100600.36
2019-03-12T13:59:36.603Z,100606.02
2019-03-12T14:02:07.680Z,100602.09
2019-03-12T14:04:38.787Z,100598.47
2019-03-12T14:07:09.920Z,100603.46
2019-03-12T14:09:40.826Z,100605.31
2019-03-12T14:12:11.883Z,100608.94
2019-03-12T14:14:42.958Z,100607.59
2019-03-12T14:17:14.097Z,100618.21
2019-03-12T14:19:45.075Z,100620.40
2019-03-12T14:22:16.160Z,100617.49
2019-03-12T14:24:47.309Z,100616.08
2019-03-12T14:27:19.358Z,100622.92
2019-03-12T14:29:50.339Z,100621.74
2019-03-12T14:32:21.468Z,100630.48
2019-03-12T14:34:52.326Z,100629.55
2019-03-12T14:37:23.878Z,100626.02
2019-03-12T14:39:55.175Z,100628.69
2019-03-12T14:42:26.254Z,100634.50
2019-03-12T14:44:57.265Z,100629.94
2019-03-12T14:47:28.509Z,100634.48
2019-03-12T14:49:59.812Z,100637.70
2019-03-12T14:52:30.936Z,100644.09
2019-03-12T14:55:01.821Z,100636.90
2019-03-12T14:57:32.976Z,100645.77
2019-03-12T15:00:07.793Z,100658.01
2019-03-12T15:02:38.988Z,100658.84
2019-03-12T15:05:10.167Z,100663.28
2019-03-12T15:07:41.273Z,100665.89
2019-03-12T15:10:12.469Z,100656.58
2019-03-12T15:12:43.799Z,100664.22
2019-03-12T15:15:15.136Z,100661.84
2019-03-12T15:17:46.234Z,100673.56
2019-03-12T15:20:17.246Z,100676.44
2019-03-12T15:22:48.475Z,100683.48
2019-03-12T15:25:19.498Z,100683.64
2019-03-12T15:27:50.695Z,100690.42
2019-03-12T15:30:27.275Z,100684.41
2019-03-12T15:32:58.208Z,100693.05
2019-03-12T15:35:29.297Z,100700.86
2019-03-12T15:38:00.621Z,100697.50
2019-03-12T15:40:31.582Z,100702.13
2019-03-12T15:43:02.647Z,100704.62
2019-03-12T15:45:33.664Z,100709.03
2019-03-12T15:48:04.630Z,100711.22
2019-03-12T15:50:35.707Z,100711.98
2019-03-12T15:53:07.360Z,100716.70
2019-03-12T15:55:38.414Z,100718.74
2019-03-12T15:58:09.560Z,100721.52
2019-03-12T16:00:40.621Z,100725.40
2019-03-12T16:03:11.659Z,100726.45
2019-03-12T16:05:42.795Z,100729.38
2019-03-12T16:08:13.839Z,100722.38
2019-03-12T16:10:57.150Z,100722.88
2019-03-12T16:13:17.665Z,100707.48
2019-03-12T16:15:48.894Z,100707.48
2019-03-12T16:18:20.028Z,100722.89
2019-03-12T16:20:51.350Z,100732.20
2019-03-12T16:23:22.661Z,100749.65
2019-03-12T16:25:53.959Z,100749.65
2019-03-12T16:28:25.281Z,100748.78
2019-03-12T16:30:57.607Z,100750.78
2019-03-12T16:33:28.955Z,100759.03
2019-03-12T16:36:00.227Z,100752.10
2019-03-12T16:38:31.644Z,100760.13
2019-03-12T16:41:03.101Z,100764.88
2019-03-12T16:43:34.489Z,100759.91
2019-03-12T16:46:05.794Z,100747.06
2019-03-12T16:48:38.566Z,100748.65
2019-03-12T16:51:09.943Z,100751.17
2019-03-12T16:53:41.011Z,100766.88
2019-03-12T16:56:12.049Z,100768.08
2019-03-12T16:58:43.186Z,100776.28
2019-03-12T17:01:15.523Z,100775.00
2019-03-12T17:03:46.862Z,100769.69
2019-03-12T17:06:18.184Z,100773.75
2019-03-12T17:08:50.018Z,100773.19
2019-03-12T17:11:21.331Z,100774.09
2019-03-12T17:13:52.758Z,100773.75
2019-03-12T17:16:24.190Z,100779.17
2019-03-12T17:18:55.669Z,100784.36
2019-03-12T17:21:27.020Z,100773.41
2019-03-12T17:23:58.467Z,100773.64
2019-03-12T17:26:30.596Z,100771.34
2019-03-12T17:29:02.278Z,100773.78
2019-03-12T17:31:33.685Z,100775.67
2019-03-12T17:34:05.379Z,100777.70
2019-03-12T17:36:36.948Z,100785.91
2019-03-12T17:39:10.036Z,100787.27
2019-03-12T17:41:43.028Z,100783.27
2019-03-12T17:44:14.571Z,100790.41
2019-03-12T17:46:45.874Z,100790.48
2019-03-12T17:49:19.278Z,100774.94
2019-03-12T17:51:50.571Z,100790.19
2019-03-12T17:54:22.063Z,100795.20
2019-03-12T17:56:53.750Z,100798.25
2019-03-12T17:59:28.499Z,100784.23
2019-03-12T18:02:00.165Z,100782.94
2019-03-12T18:04:32.717Z,100785.36
2019-03-12T18:07:05.662Z,100780.38
2019-03-12T18:09:51.312Z,100783.23
2019-03-12T18:12:41.545Z,100785.72
2019-03-12T18:15:19.235Z,100775.42
2019-03-12T18:17:50.752Z,100767.00
2019-03-12T18:20:23.034Z,100771.27
2019-03-12T18:22:55.364Z,100775.86
2019-03-12T18:25:29.132Z,100776.98
2019-03-12T18:28:00.759Z,100786.55
2019-03-12T18:30:32.092Z,100786.76
2019-03-12T18:33:03.491Z,100786.33
2019-03-12T18:35:34.971Z,100784.25
2019-03-12T18:38:06.420Z,100789.27
2019-03-12T18:40:37.877Z,100790.05
2019-03-12T18:43:09.197Z,100801.70
2019-03-12T18:45:40.567Z,100800.19
2019-03-12T18:48:12.229Z,100803.91
2019-03-12T18:50:43.753Z,100802.75
2019-03-12T18:53:17.938Z,100798.75
2019-03-12T18:55:52.433Z,100795.73
2019-03-12T18:58:23.758Z,100791.55
2019-03-12T19:00:58.126Z,100788.11
2019-03-12T19:03:29.482Z,100797.38
2019-03-12T19:06:00.884Z,100790.03
2019-03-12T19:08:32.258Z,100792.29
2019-03-12T19:11:03.779Z,100789.86
2019-03-12T19:13:35.480Z,100786.50
2019-03-12T19:16:07.130Z,100777.67
2019-03-12T19:18:40.423Z,100768.59
2019-03-12T19:21:13.025Z,100774.89
2019-03-12T19:23:44.440Z,100775.52
2019-03-12T19:26:15.883Z,100765.27
2019-03-12T19:28:47.251Z,100768.14
2019-03-12T19:31:23.207Z,100762.42
2019-03-12T19:33:55.373Z,100749.32
2019-03-12T19:36:26.955Z,100749.08
2019-03-12T19:38:58.642Z,100742.73
2019-03-12T19:41:30.330Z,100737.84
2019-03-12T19:44:02.637Z,100731.23
2019-03-12T19:46:34.292Z,100724.64
2019-03-12T19:49:05.905Z,100717.25
2019-03-12T19:51:37.322Z,100719.47
2019-03-12T19:54:08.763Z,100717.68
2019-03-12T19:56:40.258Z,100724.23
2019-03-12T19:59:12.938Z,100733.55
2019-03-12T20:01:44.829Z,100737.34
2019-03-12T20:04:16.190Z,100747.20
2019-03-12T20:06:47.815Z,100754.85
2019-03-12T20:09:22.357Z,100751.77
2019-03-12T20:12:11.690Z,100753.45
2019-03-12T20:14:58.196Z,100754.66
2019-03-12T20:18:09.096Z,100761.35
2019-03-12T20:21:10.879Z,100753.20
2019-03-12T20:24:19.040Z,100757.62
2019-03-12T20:27:10.156Z,100758.25
2019-03-12T20:29:47.943Z,100752.25
2019-03-12T20:32:55.817Z,100742.91
2019-03-12T20:35:56.048Z,100740.91
2019-03-12T20:39:05.285Z,100750.03
2019-03-12T20:41:56.814Z,100744.07
2019-03-12T20:44:52.887Z,100737.78
2019-03-12T20:47:53.640Z,100748.94
2019-03-12T20:50:48.024Z,100749.39
2019-03-12T20:53:31.251Z,100748.80
2019-03-12T20:56:37.512Z,100748.94
2019-03-12T20:59:45.528Z,100758.27
2019-03-12T21:02:34.815Z,100756.17
2019-03-12T21:05:25.467Z,100757.45
2019-03-12T21:08:21.546Z,100759.42
2019-03-12T21:11:26.508Z,100761.63
2019-03-12T21:14:35.993Z,100762.11
2019-03-12T21:17:26.547Z,100761.83
2019-03-12T21:20:24.990Z,100760.42
2019-03-12T21:23:02.106Z,100761.23
2019-03-12T21:25:39.520Z,100754.41
2019-03-12T21:28:38.189Z,100760.14
2019-03-12T21:31:10.470Z,100758.27
2019-03-12T21:33:43.861Z,100763.50
2019-03-12T21:36:15.181Z,100764.17
2019-03-12T21:38:46.456Z,100764.84
2019-03-12T21:41:17.536Z,100766.00
2019-03-12T21:43:48.770Z,100753.31
2019-03-12T21:46:19.991Z,100750.61
2019-03-12T21:48:51.496Z,100755.47
2019-03-12T21:51:22.696Z,100747.09
2019-03-12T21:53:53.753Z,100748.26
2019-03-12T21:56:24.950Z,100747.31
2019-03-12T21:58:56.065Z,100746.58
2019-03-12T22:01:27.546Z,100752.04
2019-03-12T22:04:02.886Z,100749.82
2019-03-12T22:06:34.040Z,100751.23
2019-03-12T22:09:05.601Z,100749.36
2019-03-12T22:11:38.466Z,100747.52
2019-03-12T22:14:09.999Z,100747.88
2019-03-12T22:16:43.857Z,100759.33
2019-03-12T22:19:16.075Z,100755.17
2019-03-12T22:21:51.571Z,100759.08
2019-03-12T22:24:22.789Z,100754.69
2019-03-12T22:26:53.965Z,100750.91
2019-03-12T22:29:25.070Z,100755.01
2019-03-12T22:31:56.172Z,100752.55
2019-03-12T22:34:30.029Z,100756.33
2019-03-12T22:37:00.135Z,100755.55
2019-03-12T22:39:31.356Z,100753.95
2019-03-12T22:42:02.559Z,100762.71
2019-03-12T22:44:33.663Z,100757.06
2019-03-12T22:47:04.689Z,100761.73
2019-03-12T22:49:35.737Z,100760.90
2019-03-12T22:52:06.877Z,100766.03
2019-03-12T22:54:37.976Z,100761.98
2019-03-12T22:57:09.105Z,100767.22
2019-03-12T22:59:58.181Z,100769.16
2019-03-12T23:02:49.632Z,100773.97
2019-03-12T23:05:38.735Z,100776.78
2019-03-12T23:08:28.045Z,100778.34
2019-03-12T23:11:00.765Z,100772.30
2019-03-12T23:13:32.279Z,100772.75
2019-03-12T23:16:04.233Z,100769.72
2019-03-12T23:18:35.625Z,100771.09
2019-03-12T23:21:07.000Z,100766.82
2019-03-12T23:23:38.719Z,100764.06
2019-03-12T23:26:10.072Z,100766.55
2019-03-12T23:28:41.208Z,100757.39
2019-03-12T23:31:12.360Z,100759.88
2019-03-12T23:33:43.759Z,100754.61
2019-03-12T23:36:14.838Z,100756.75
2019-03-12T23:38:46.054Z,100761.31
2019-03-12T23:41:17.238Z,100763.02
2019-03-12T23:43:48.426Z,100760.05
2019-03-12T23:46:19.539Z,100753.09
2019-03-12T23:48:50.722Z,100749.53
2019-03-12T23:51:21.816Z,100755.92
2019-03-12T23:53:53.099Z,100752.13
2019-03-12T23:56:24.316Z,100753.00
2019-03-12T23:58:55.405Z,100749.70
